createdAt,value
2023-10-06T00:00:29.062Z,11.40
2023-10-06T00:03:03.026Z,11.40
2023-10-06T00:05:42.153Z,11.40
2023-10-06T00:08:13.362Z,11.50
2023-10-06T00:11:06.310Z,11.70
2023-10-06T00:13:48.772Z,11.50
2023-10-06T00:16:22.253Z,11.60
2023-10-06T00:19:01.370Z,11.60
2023-10-06T00:21:32.374Z,11.70
2023-10-06T00:24:09.747Z,11.70
2023-10-06T00:26:44.534Z,11.50
2023-10-06T00:29:29.583Z,11.60
2023-10-06T00:32:48.195Z,11.50
2023-10-06T00:35:32.645Z,11.50
2023-10-06T00:38:20.292Z,11.50
2023-10-06T00:40:55.570Z,11.50
2023-10-06T00:43:50.341Z,11.40
2023-10-06T00:46:21.421Z,11.40
2023-10-06T00:49:01.999Z,11.40
2023-10-06T00:51:30.152Z,11.30
2023-10-06T00:54:07.943Z,11.40
2023-10-06T00:56:49.743Z,11.10
2023-10-06T00:59:19.470Z,11.20
2023-10-06T01:01:55.068Z,11.20
2023-10-06T01:04:26.480Z,11.10
2023-10-06T01:06:56.148Z,11.20
2023-10-06T01:09:31.664Z,11.20
2023-10-06T01:12:07.652Z,11.10
2023-10-06T01:14:44.710Z,11.00
2023-10-06T01:17:18.535Z,11.00
2023-10-06T01:19:50.161Z,10.90
2023-10-06T01:22:34.868Z,10.80
2023-10-06T01:25:15.370Z,10.70
2023-10-06T01:27:55.408Z,10.70
2023-10-06T01:30:24.133Z,10.60
2023-10-06T01:32:53.240Z,10.70
2023-10-06T01:35:26.832Z,10.60
2023-10-06T01:38:11.698Z,10.60
2023-10-06T01:40:45.764Z,10.70
2023-10-06T01:43:16.499Z,10.70
2023-10-06T01:46:03.392Z,10.60
2023-10-06T01:51:37.389Z,10.50
2023-10-06T01:54:21.447Z,10.50
2023-10-06T01:56:58.210Z,10.50
2023-10-06T01:59:36.128Z,10.60
2023-10-06T02:02:23.268Z,10.40
2023-10-06T02:05:23.135Z,10.40
2023-10-06T02:08:08.906Z,10.40
2023-10-06T02:11:02.519Z,10.50
2023-10-06T02:13:43.263Z,10.40
2023-10-06T02:19:30.229Z,10.40
2023-10-06T02:22:08.143Z,10.30
2023-10-06T02:24:46.717Z,10.40
2023-10-06T02:27:21.279Z,10.40
2023-10-06T02:29:58.144Z,10.30
2023-10-06T02:32:42.417Z,10.30
2023-10-06T02:35:29.426Z,10.30
2023-10-06T02:38:09.844Z,10.20
2023-10-06T02:40:55.781Z,10.30
2023-10-06T02:43:24.560Z,10.30
2023-10-06T02:45:52.992Z,10.30
2023-10-06T02:48:34.844Z,10.40
2023-10-06T02:51:03.603Z,10.50
2023-10-06T02:53:37.933Z,10.40
2023-10-06T02:56:10.428Z,10.40
2023-10-06T02:58:42.923Z,10.50
2023-10-06T03:01:16.004Z,10.60
2023-10-06T03:03:48.085Z,10.50
2023-10-06T03:06:18.725Z,10.60
2023-10-06T03:08:50.994Z,10.60
2023-10-06T03:11:26.479Z,10.60
2023-10-06T03:14:00.021Z,10.70
2023-10-06T03:16:34.003Z,10.60
2023-10-06T03:19:08.728Z,10.70
2023-10-06T03:21:41.215Z,10.70
2023-10-06T03:24:22.119Z,10.70
2023-10-06T03:26:52.853Z,10.80
2023-10-06T03:29:31.940Z,10.80
2023-10-06T03:32:03.235Z,10.70
2023-10-06T03:34:54.150Z,10.70
2023-10-06T03:37:53.917Z,10.80
2023-10-06T03:40:46.458Z,10.70
2023-10-06T03:43:22.007Z,10.70
2023-10-06T03:45:50.167Z,10.70
2023-10-06T03:48:25.592Z,10.80
2023-10-06T03:50:55.689Z,10.70
2023-10-06T03:53:25.570Z,10.70
2023-10-06T03:55:54.403Z,10.70
2023-10-06T03:58:29.598Z,10.80
2023-10-06T04:01:01.349Z,10.80
2023-10-06T04:03:31.148Z,10.70
2023-10-06T04:05:59.342Z,10.70
2023-10-06T04:08:27.191Z,10.70
2023-10-06T04:10:59.386Z,10.70
2023-10-06T04:13:27.498Z,10.90
2023-10-06T04:15:59.625Z,10.90
2023-10-06T04:18:27.186Z,10.80
2023-10-06T04:20:55.872Z,10.80
2023-10-06T04:23:26.662Z,10.70
2023-10-06T04:25:58.403Z,10.70
2023-10-06T04:28:29.780Z,10.70
2023-10-06T04:31:03.373Z,10.70
2023-10-06T04:33:32.757Z,10.60
2023-10-06T04:36:02.507Z,10.60
2023-10-06T04:38:36.018Z,10.70
2023-10-06T04:41:11.726Z,10.50
2023-10-06T04:43:47.056Z,10.40
2023-10-06T04:46:18.159Z,10.50
2023-10-06T04:48:50.692Z,10.70
2023-10-06T04:55:57.696Z,10.60
2023-10-06T04:58:33.250Z,10.50
2023-10-06T05:01:12.973Z,10.60
2023-10-06T05:03:52.242Z,10.60
2023-10-06T05:06:32.937Z,10.70
2023-10-06T05:09:04.702Z,10.80
2023-10-06T05:11:36.426Z,10.70
2023-10-06T05:14:15.277Z,10.60
2023-10-06T05:16:43.251Z,10.60
2023-10-06T05:19:15.631Z,10.70
2023-10-06T05:21:45.723Z,10.70
2023-10-06T05:24:17.793Z,10.70
2023-10-06T05:26:49.564Z,10.70
2023-10-06T05:29:17.639Z,10.50
2023-10-06T05:31:57.513Z,10.50
2023-10-06T05:34:35.404Z,10.60
2023-10-06T05:37:06.921Z,10.50
2023-10-06T05:40:23.198Z,10.50
2023-10-06T05:43:14.286Z,10.60
2023-10-06T05:45:46.422Z,10.70
2023-10-06T05:48:21.706Z,10.70
2023-10-06T05:51:11.718Z,10.80
2023-10-06T05:53:45.330Z,10.70
2023-10-06T05:56:14.327Z,10.60
2023-10-06T05:58:44.711Z,10.60
2023-10-06T06:01:15.757Z,10.60
2023-10-06T06:04:10.878Z,10.40
2023-10-06T06:06:41.220Z,10.40
2023-10-06T06:09:16.155Z,10.40
2023-10-06T06:11:45.149Z,10.60
2023-10-06T06:14:24.520Z,10.60
2023-10-06T06:17:05.792Z,10.60
2023-10-06T06:19:33.646Z,10.70
2023-10-06T06:22:07.337Z,10.80
2023-10-06T06:24:42.640Z,10.70
2023-10-06T06:27:58.560Z,10.70
2023-10-06T06:30:33.932Z,11.00
2023-10-06T06:33:19.617Z,10.80
2023-10-06T06:35:48.724Z,10.60
2023-10-06T06:38:20.178Z,10.70
2023-10-06T06:40:55.562Z,10.60
2023-10-06T06:43:29.233Z,10.50
2023-10-06T06:45:58.833Z,10.80
2023-10-06T06:48:31.409Z,10.90
2023-10-06T06:51:04.212Z,10.80
2023-10-06T06:53:50.230Z,10.90
2023-10-06T06:56:22.055Z,10.90
2023-10-06T06:58:56.827Z,11.00
2023-10-06T07:01:47.224Z,11.20
2023-10-06T07:04:50.854Z,11.20
2023-10-06T07:08:08.690Z,11.30
2023-10-06T07:11:05.362Z,11.30
2023-10-06T07:13:37.125Z,11.30
2023-10-06T07:16:18.467Z,11.30
2023-10-06T07:19:02.832Z,11.40
2023-10-06T07:21:35.968Z,11.30
2023-10-06T07:24:43.840Z,11.40
2023-10-06T07:27:20.583Z,11.30
2023-10-06T07:30:00.174Z,11.30
2023-10-06T07:32:37.585Z,11.30
2023-10-06T07:35:23.517Z,11.40
2023-10-06T07:38:22.255Z,11.60
2023-10-06T07:40:51.071Z,11.50
2023-10-06T07:43:28.159Z,11.20
2023-10-06T07:45:57.307Z,11.30
2023-10-06T07:48:40.814Z,11.20
2023-10-06T07:51:42.098Z,11.40
2023-10-06T07:58:05.434Z,11.60
2023-10-06T08:00:50.000Z,11.80
2023-10-06T08:03:39.675Z,11.80
2023-10-06T08:06:24.763Z,11.80
2023-10-06T08:09:20.924Z,11.90
2023-10-06T08:12:09.832Z,12.00
2023-10-06T08:15:36.924Z,12.00
2023-10-06T08:18:22.815Z,12.20
2023-10-06T08:20:58.388Z,12.10
2023-10-06T08:27:01.832Z,12.50
2023-10-06T08:33:14.780Z,12.80
2023-10-06T08:35:56.294Z,12.80
2023-10-06T08:39:14.505Z,12.90
2023-10-06T08:42:26.195Z,12.90
2023-10-06T08:49:29.246Z,13.00
2023-10-06T08:52:22.635Z,13.10
2023-10-06T08:59:07.856Z,13.50
2023-10-06T09:02:20.307Z,13.60
2023-10-06T09:05:43.970Z,13.70
2023-10-06T09:11:13.725Z,13.90
2023-10-06T09:13:47.646Z,13.90
2023-10-06T09:16:24.296Z,13.90
2023-10-06T09:19:49.652Z,13.90
2023-10-06T09:22:30.704Z,13.70
2023-10-06T09:25:10.978Z,13.60
2023-10-06T09:28:16.377Z,13.60
2023-10-06T09:30:58.855Z,13.60
2023-10-06T09:33:48.720Z,13.80
2023-10-06T09:36:36.455Z,14.00
2023-10-06T09:39:41.350Z,14.30
2023-10-06T09:42:21.022Z,14.70
2023-10-06T09:49:07.378Z,15.20
2023-10-06T09:51:59.427Z,15.50
2023-10-06T09:58:02.924Z,14.80
2023-10-06T10:00:44.405Z,15.40
2023-10-06T10:16:13.988Z,16.80
2023-10-06T12:10:45.136Z,21.00
2023-10-06T12:14:07.365Z,20.50
2023-10-06T13:11:46.107Z,18.40
2023-10-06T13:15:01.406Z,17.60
2023-10-06T13:17:52.223Z,17.40
2023-10-06T13:20:27.083Z,17.20
2023-10-06T13:23:37.932Z,17.20
2023-10-06T13:26:27.427Z,17.30
2023-10-06T13:29:18.482Z,17.20
2023-10-06T14:14:47.461Z,16.90
2023-10-06T14:17:27.306Z,17.10
2023-10-06T14:19:58.230Z,17.00
2023-10-06T14:22:34.835Z,16.90
2023-10-06T14:25:09.245Z,16.90
2023-10-06T14:27:46.429Z,16.70
2023-10-06T14:30:19.051Z,16.60
2023-10-06T14:50:33.278Z,16.20
2023-10-06T14:53:05.355Z,16.20
2023-10-06T14:55:43.924Z,16.10
2023-10-06T14:58:16.596Z,16.10
2023-10-06T15:00:49.824Z,16.00
2023-10-06T15:03:32.132Z,16.10
2023-10-06T15:06:13.608Z,16.00
2023-10-06T15:08:56.374Z,16.00
2023-10-06T15:11:29.090Z,16.00
2023-10-06T15:13:59.339Z,16.00
2023-10-06T15:16:30.952Z,15.90
2023-10-06T15:18:59.458Z,15.90
2023-10-06T15:21:32.297Z,15.90
2023-10-06T15:24:03.053Z,15.90
2023-10-06T15:26:45.666Z,15.80
2023-10-06T15:29:26.200Z,15.80
2023-10-06T15:32:06.198Z,15.80
2023-10-06T15:34:42.906Z,16.00
2023-10-06T15:37:22.034Z,15.80
2023-10-06T15:39:53.611Z,15.80
2023-10-06T15:42:42.377Z,15.70
2023-10-06T15:45:18.558Z,15.70
2023-10-06T15:47:53.722Z,15.70
2023-10-06T15:50:31.621Z,15.70
2023-10-06T15:53:16.795Z,15.70
2023-10-06T15:56:17.844Z,15.60
2023-10-06T16:11:05.228Z,15.60
2023-10-06T16:29:00.923Z,15.40
2023-10-06T16:32:10.083Z,15.20
2023-10-06T16:35:06.869Z,15.10
2023-10-06T16:37:54.432Z,15.20
2023-10-06T16:40:48.494Z,15.10
2023-10-06T16:43:23.006Z,15.10
2023-10-06T16:45:59.463Z,15.00
2023-10-06T16:48:33.679Z,15.00
2023-10-06T16:54:25.900Z,15.00
2023-10-06T16:57:08.412Z,14.90
2023-10-06T16:59:53.453Z,14.90
2023-10-06T17:02:47.887Z,14.90
2023-10-06T17:05:24.933Z,14.90
2023-10-06T17:07:59.415Z,14.90
2023-10-06T17:10:32.012Z,14.90
2023-10-06T17:13:04.707Z,14.90
2023-10-06T17:15:32.935Z,14.80
2023-10-06T17:21:10.206Z,14.80
2023-10-06T17:23:51.169Z,14.80
2023-10-06T17:26:24.947Z,14.80
2023-10-06T17:28:55.434Z,14.80
2023-10-06T17:31:34.728Z,14.80
2023-10-06T17:34:05.451Z,14.70
2023-10-06T17:36:34.603Z,14.70
2023-10-06T17:39:09.517Z,14.60
2023-10-06T17:41:45.462Z,14.70
2023-10-06T17:44:25.532Z,14.70
2023-10-06T17:46:55.760Z,14.80
2023-10-06T17:49:37.297Z,14.70
2023-10-06T17:52:18.960Z,14.70
2023-10-06T17:54:58.384Z,14.80
2023-10-06T18:01:10.689Z,14.70
2023-10-06T18:03:49.372Z,14.70
2023-10-06T18:06:36.977Z,14.70
2023-10-06T18:09:20.199Z,14.60
2023-10-06T18:12:23.587Z,14.50
2023-10-06T18:15:08.534Z,14.60
2023-10-06T18:17:50.415Z,14.60
2023-10-06T18:20:43.319Z,14.50
2023-10-06T18:23:14.080Z,14.50
2023-10-06T18:25:58.665Z,14.50
2023-10-06T18:28:31.386Z,14.50
2023-10-06T18:31:11.613Z,14.50
2023-10-06T18:33:50.346Z,14.50
2023-10-06T18:36:24.819Z,14.50
2023-10-06T18:39:08.860Z,14.50
2023-10-06T18:41:53.561Z,14.50
2023-10-06T18:44:47.408Z,14.50
2023-10-06T18:47:38.971Z,14.50
2023-10-06T18:50:27.703Z,14.50
2023-10-06T18:52:57.940Z,14.50
2023-10-06T18:55:33.149Z,14.50
2023-10-06T18:58:07.233Z,14.50
2023-10-06T19:00:53.476Z,14.60
2023-10-06T19:03:56.160Z,14.50
2023-10-06T19:06:32.784Z,14.50
2023-10-06T19:09:07.426Z,14.60
2023-10-06T19:11:42.011Z,14.60
2023-10-06T19:14:11.730Z,14.60
2023-10-06T19:16:57.164Z,14.50
2023-10-06T19:19:46.825Z,14.40
2023-10-06T19:22:20.716Z,14.60
2023-10-06T19:24:57.968Z,14.60
2023-10-06T19:27:29.073Z,14.50
2023-10-06T19:30:00.005Z,14.50
2023-10-06T19:32:29.941Z,14.60
2023-10-06T19:35:14.492Z,14.50
2023-10-06T19:37:46.336Z,14.60
2023-10-06T19:40:19.322Z,14.60
2023-10-06T19:43:53.380Z,14.60
2023-10-06T19:46:41.619Z,14.60
2023-10-06T19:50:35.671Z,14.60
2023-10-06T19:57:17.970Z,14.60
2023-10-06T20:00:08.489Z,14.60
2023-10-06T20:06:13.278Z,14.30
2023-10-06T21:01:06.103Z,14.20
2023-10-06T21:03:57.294Z,14.10
2023-10-06T22:04:43.105Z,13.40
2023-10-06T22:07:23.909Z,13.40
2023-10-06T22:09:54.235Z,13.40
2023-10-06T22:12:26.424Z,13.30
2023-10-06T22:17:41.816Z,13.30
2023-10-06T22:20:13.430Z,13.30
2023-10-06T22:23:03.918Z,13.20
2023-10-06T22:25:48.721Z,13.10
2023-10-06T22:28:28.274Z,13.20
2023-10-06T22:31:16.012Z,13.20
2023-10-06T22:33:49.167Z,13.20
2023-10-06T22:36:31.350Z,13.20
2023-10-06T22:39:02.113Z,13.10
2023-10-06T22:41:32.865Z,13.10
2023-10-06T22:44:13.279Z,13.20
2023-10-06T22:46:46.047Z,13.30
2023-10-06T22:49:15.802Z,13.20
2023-10-06T22:51:47.441Z,13.20
2023-10-06T22:54:18.426Z,13.20
2023-10-06T22:56:49.568Z,13.30
2023-10-06T22:59:22.026Z,13.30
2023-10-06T23:02:14.592Z,13.30
2023-10-06T23:04:48.248Z,13.30
2023-10-06T23:07:21.654Z,13.30
2023-10-06T23:09:57.458Z,13.40
2023-10-06T23:12:34.918Z,13.40
2023-10-06T23:15:08.017Z,13.40
2023-10-06T23:17:46.484Z,13.40
2023-10-06T23:20:46.821Z,13.50
2023-10-06T23:23:21.879Z,13.60
2023-10-06T23:25:54.072Z,13.50
2023-10-06T23:28:33.759Z,13.60
2023-10-06T23:31:13.762Z,13.60
2023-10-06T23:33:48.035Z,13.70
2023-10-06T23:36:30.233Z,13.70
2023-10-06T23:39:20.191Z,13.70
2023-10-06T23:41:58.623Z,13.80
2023-10-06T23:45:04.224Z,13.80
